createdAt,value
2024-04-18T00:02:19.763Z,64.45
2024-04-18T00:05:05.085Z,63.79
2024-04-18T00:07:50.110Z,62.86
2024-04-18T00:10:35.189Z,62.57
2024-04-18T00:13:20.337Z,63.38
2024-04-18T00:16:05.273Z,62.02
2024-04-18T00:18:50.340Z,61.32
2024-04-18T00:21:35.363Z,61.53
2024-04-18T00:24:20.601Z,62.73
2024-04-18T00:27:05.614Z,62.96
2024-04-18T00:29:50.724Z,62.95
2024-04-18T00:32:35.955Z,62.99
2024-04-18T00:35:20.936Z,61.86
2024-04-18T00:38:06.193Z,61.73
2024-04-18T00:40:51.228Z,62.14
2024-04-18T00:43:36.378Z,61.98
2024-04-18T00:46:21.420Z,62.12
2024-04-18T00:49:06.545Z,62.20
2024-04-18T00:51:51.837Z,59.63
2024-04-18T00:54:36.859Z,59.62
2024-04-18T00:57:21.700Z,59.52
2024-04-18T01:00:06.784Z,60.53
2024-04-18T01:02:51.871Z,60.02
2024-04-18T01:05:36.888Z,59.91
2024-04-18T01:08:21.886Z,59.81
2024-04-18T01:11:06.981Z,60.30
2024-04-18T01:13:51.876Z,60.76
2024-04-18T01:16:36.889Z,60.88
2024-04-18T01:19:22.010Z,60.64
2024-04-18T01:22:07.181Z,60.14
2024-04-18T01:24:52.235Z,60.60
2024-04-18T01:27:37.411Z,59.67
2024-04-18T01:30:22.410Z,59.81
2024-04-18T01:33:07.396Z,60.22
2024-04-18T01:35:52.491Z,61.01
2024-04-18T01:38:37.571Z,61.59
2024-04-18T01:41:22.713Z,61.05
2024-04-18T01:44:07.652Z,60.79
2024-04-18T01:46:52.946Z,60.60
2024-04-18T01:49:38.020Z,60.76
2024-04-18T01:52:23.174Z,60.40
2024-04-18T01:55:08.199Z,59.79
2024-04-18T01:57:53.305Z,58.14
2024-04-18T02:00:38.436Z,59.65
2024-04-18T02:03:23.565Z,59.23
2024-04-18T02:06:08.569Z,61.36
2024-04-18T02:08:53.538Z,61.88
2024-04-18T02:11:38.662Z,61.12
2024-04-18T02:14:23.766Z,60.83
2024-04-18T02:17:08.735Z,60.88
2024-04-18T02:19:53.745Z,61.70
2024-04-18T02:22:38.695Z,61.58
2024-04-18T02:25:23.859Z,61.29
2024-04-18T02:28:08.933Z,61.71
2024-04-18T02:30:53.935Z,63.98
2024-04-18T02:33:38.980Z,64.55
2024-04-18T02:36:23.889Z,64.23
2024-04-18T02:39:08.894Z,64.21
2024-04-18T02:41:54.054Z,62.74
2024-04-18T02:44:39.172Z,62.41
2024-04-18T02:47:24.198Z,62.21
2024-04-18T02:50:09.331Z,61.81
2024-04-18T02:52:54.359Z,63.28
2024-04-18T02:55:39.431Z,64.68
2024-04-18T02:58:24.530Z,65.70
2024-04-18T03:01:09.657Z,66.59
2024-04-18T03:03:54.975Z,67.24
2024-04-18T03:06:40.235Z,68.05
2024-04-18T03:09:25.437Z,68.33
2024-04-18T03:12:10.362Z,68.92
2024-04-18T03:14:55.550Z,69.63
2024-04-18T03:17:40.723Z,70.13
2024-04-18T03:20:25.661Z,69.70
2024-04-18T03:25:52.670Z,68.68
2024-04-18T03:28:37.740Z,67.29
2024-04-18T03:31:22.800Z,67.55
2024-04-18T03:34:07.893Z,67.24
2024-04-18T03:36:52.966Z,66.85
2024-04-18T03:39:38.033Z,66.59
2024-04-18T03:42:22.919Z,66.03
2024-04-18T03:45:08.040Z,65.59
2024-04-18T03:47:53.198Z,64.79
2024-04-18T03:50:38.349Z,65.08
2024-04-18T03:53:23.584Z,64.88
2024-04-18T03:56:08.684Z,66.41
2024-04-18T03:58:53.760Z,66.81
2024-04-18T04:01:38.871Z,67.63
2024-04-18T04:04:24.002Z,68.51
2024-04-18T04:07:08.891Z,69.25
2024-04-18T04:09:54.042Z,69.70
2024-04-18T04:12:39.262Z,70.35
2024-04-18T04:15:24.220Z,71.43
2024-04-18T04:18:09.493Z,71.93
2024-04-18T04:20:54.305Z,71.90
2024-04-18T04:23:39.973Z,71.62
2024-04-18T04:26:24.981Z,71.57
2024-04-18T04:29:10.010Z,71.56
2024-04-18T04:31:55.287Z,71.23
2024-04-18T04:34:40.291Z,70.66
2024-04-18T04:37:25.382Z,69.67
2024-04-18T04:40:10.518Z,69.84
2024-04-18T04:42:58.828Z,68.51
2024-04-18T04:45:45.557Z,68.31
2024-04-18T04:48:32.239Z,67.62
2024-04-18T04:51:19.112Z,66.97
2024-04-18T04:54:04.256Z,68.88
2024-04-18T04:56:49.234Z,70.04
2024-04-18T04:59:34.347Z,70.29
2024-04-18T05:02:19.464Z,71.60
2024-04-18T05:05:04.454Z,72.24
2024-04-18T05:07:51.350Z,73.22
2024-04-18T05:13:19.187Z,73.42
2024-04-18T05:16:04.111Z,75.40
2024-04-18T05:18:49.311Z,76.95
2024-04-18T05:21:34.139Z,77.65
2024-04-18T05:24:19.334Z,78.18
2024-04-18T05:27:04.335Z,77.88
2024-04-18T05:29:49.498Z,77.77
2024-04-18T05:32:34.689Z,77.07
2024-04-18T05:35:20.149Z,76.17
2024-04-18T05:38:05.298Z,75.67
2024-04-18T05:40:50.314Z,75.45
2024-04-18T05:43:35.748Z,75.12
2024-04-18T05:46:21.071Z,75.05
2024-04-18T05:49:06.099Z,74.14
2024-04-18T05:51:51.342Z,72.56
2024-04-18T05:54:36.394Z,71.76
2024-04-18T05:57:21.535Z,71.15
2024-04-18T06:00:07.550Z,70.67
2024-04-18T06:02:52.498Z,70.06
2024-04-18T06:05:37.333Z,68.98
2024-04-18T06:08:22.270Z,67.79
2024-04-18T06:11:07.416Z,67.04
2024-04-18T06:13:52.505Z,66.35
2024-04-18T06:16:37.520Z,65.88
2024-04-18T06:19:23.129Z,63.96
2024-04-18T06:22:09.118Z,63.70
2024-04-18T06:24:54.160Z,64.27
2024-04-18T06:27:39.097Z,63.21
2024-04-18T06:30:24.198Z,61.90
2024-04-18T06:33:09.292Z,61.37
2024-04-18T06:35:54.295Z,61.19
2024-04-18T06:38:39.329Z,60.63
2024-04-18T06:41:24.461Z,58.32
2024-04-18T06:44:09.431Z,57.18
2024-04-18T06:47:00.552Z,59.99
2024-04-18T06:49:47.499Z,62.41
2024-04-18T06:52:32.675Z,64.78
2024-04-18T06:55:17.719Z,65.48
2024-04-18T06:58:02.971Z,64.07
2024-04-18T07:00:48.190Z,63.59
2024-04-18T07:03:33.712Z,65.25
2024-04-18T07:06:18.677Z,65.37
2024-04-18T07:09:03.588Z,66.99
2024-04-18T07:11:48.791Z,68.47
2024-04-18T07:14:33.901Z,67.93
2024-04-18T07:17:18.956Z,68.31
2024-04-18T07:20:04.039Z,67.60
2024-04-18T07:22:49.211Z,67.94
2024-04-18T07:25:34.255Z,67.74
2024-04-18T07:28:19.378Z,67.02
2024-04-18T07:31:04.548Z,67.04
2024-04-18T07:33:49.562Z,66.42
2024-04-18T07:36:34.812Z,66.57
2024-04-18T07:39:20.216Z,65.97
2024-04-18T07:42:05.367Z,65.98
2024-04-18T07:44:50.297Z,67.73
2024-04-18T07:47:35.467Z,66.54
2024-04-18T07:50:20.583Z,64.70
2024-04-18T07:53:09.868Z,65.14
2024-04-18T07:55:55.802Z,64.81
2024-04-18T07:58:41.538Z,61.70
2024-04-18T08:01:28.372Z,62.29
2024-04-18T08:04:34.759Z,61.49
2024-04-18T08:07:22.292Z,61.62
2024-04-18T08:10:11.698Z,61.15
2024-04-18T08:13:02.586Z,62.59
2024-04-18T08:18:38.328Z,64.76
2024-04-18T08:21:23.394Z,63.87
2024-04-18T08:24:08.373Z,60.67
2024-04-18T08:26:53.666Z,63.26
2024-04-18T08:29:38.732Z,62.09
2024-04-18T08:32:23.798Z,62.94
2024-04-18T08:35:08.878Z,61.54
2024-04-18T08:37:53.855Z,62.20
2024-04-18T08:40:40.070Z,62.59
2024-04-18T08:43:25.126Z,62.44
2024-04-18T08:46:11.598Z,65.32
2024-04-18T08:48:56.941Z,66.81
2024-04-18T08:51:41.919Z,64.84
2024-04-18T08:54:26.848Z,66.16
2024-04-18T08:57:11.952Z,66.55
2024-04-18T08:59:57.053Z,62.50
2024-04-18T09:02:42.140Z,60.43
2024-04-18T09:05:27.423Z,58.84
2024-04-18T09:08:12.434Z,59.24
2024-04-18T09:10:57.353Z,61.36
2024-04-18T09:13:42.468Z,62.60
2024-04-18T09:16:27.500Z,61.35
2024-04-18T09:19:13.822Z,60.61
2024-04-18T09:21:59.539Z,59.32
2024-04-18T09:24:44.749Z,60.12
2024-04-18T09:27:29.740Z,60.65
2024-04-18T09:30:14.791Z,60.19
2024-04-18T09:33:01.799Z,59.04
2024-04-18T09:35:46.941Z,60.61
2024-04-18T09:38:31.947Z,58.19
2024-04-18T09:41:16.930Z,60.17
2024-04-18T09:44:01.982Z,57.88
2024-04-18T09:46:47.222Z,59.60
2024-04-18T09:49:32.312Z,60.24
2024-04-18T09:52:17.471Z,62.85
2024-04-18T09:55:02.578Z,62.66
2024-04-18T09:57:50.621Z,57.68
2024-04-18T10:00:36.033Z,59.30
2024-04-18T10:03:21.062Z,59.69
2024-04-18T10:06:06.177Z,58.31
2024-04-18T10:08:51.200Z,57.89
2024-04-18T10:11:36.389Z,57.34
2024-04-18T10:14:21.289Z,56.49
2024-04-18T10:17:06.350Z,54.72
2024-04-18T10:19:51.517Z,53.98
2024-04-18T10:22:45.488Z,53.96
2024-04-18T10:25:32.628Z,52.26
2024-04-18T10:28:17.801Z,52.52
2024-04-18T10:31:02.956Z,53.08
2024-04-18T10:33:47.914Z,51.01
2024-04-18T10:36:32.859Z,48.74
2024-04-18T10:39:17.791Z,48.96
2024-04-18T10:42:03.118Z,48.61
2024-04-18T10:44:48.067Z,45.15
2024-04-18T10:47:33.387Z,48.13
2024-04-18T10:50:18.510Z,48.74
2024-04-18T10:53:03.573Z,45.77
2024-04-18T10:55:48.678Z,45.24
2024-04-18T10:58:33.814Z,42.61
2024-04-18T11:01:19.126Z,45.83
2024-04-18T11:04:04.106Z,44.41
2024-04-18T11:06:49.035Z,43.58
2024-04-18T11:09:34.234Z,41.54
2024-04-18T11:12:19.280Z,39.43
2024-04-18T11:15:04.402Z,42.98
2024-04-18T11:17:49.388Z,39.92
2024-04-18T11:20:34.486Z,39.31
2024-04-18T11:23:19.549Z,38.81
2024-04-18T11:26:05.747Z,40.98
2024-04-18T11:28:50.917Z,39.19
2024-04-18T11:31:35.851Z,37.64
2024-04-18T11:34:20.828Z,38.74
2024-04-18T11:37:05.856Z,34.70
2024-04-18T11:39:50.905Z,35.67
2024-04-18T11:42:36.071Z,37.54
2024-04-18T11:45:21.052Z,36.67
2024-04-18T11:48:06.496Z,37.18
2024-04-18T11:50:51.812Z,37.95
2024-04-18T11:53:36.974Z,34.93
2024-04-18T11:56:21.976Z,37.71
2024-04-18T11:59:06.958Z,35.82
2024-04-18T12:01:51.969Z,32.84
2024-04-18T12:04:38.244Z,34.15
2024-04-18T12:07:24.301Z,33.40
2024-04-18T12:10:09.368Z,34.42
2024-04-18T12:12:54.523Z,31.39
2024-04-18T12:15:39.638Z,30.41
2024-04-18T12:18:24.695Z,31.55
2024-04-18T12:21:09.738Z,31.96
2024-04-18T12:23:54.647Z,29.75
2024-04-18T12:26:39.982Z,34.19
2024-04-18T12:29:24.998Z,30.93
2024-04-18T12:32:10.130Z,31.90
2024-04-18T12:34:55.146Z,31.20
2024-04-18T12:37:40.060Z,31.68
2024-04-18T12:40:25.102Z,32.37
2024-04-18T12:43:10.106Z,33.36
2024-04-18T12:46:03.504Z,35.68
2024-04-18T12:48:56.366Z,34.02
2024-04-18T12:51:41.751Z,34.79
2024-04-18T12:54:26.692Z,35.60
2024-04-18T12:57:11.667Z,36.24
2024-04-18T12:59:56.547Z,37.39
2024-04-18T13:02:41.554Z,38.65
2024-04-18T13:05:26.727Z,40.18
2024-04-18T13:08:11.699Z,38.97
2024-04-18T13:10:56.768Z,36.25
2024-04-18T13:13:41.738Z,36.88
2024-04-18T13:16:26.982Z,38.32
2024-04-18T13:19:11.968Z,39.61
2024-04-18T13:22:00.081Z,40.85
2024-04-18T13:24:45.760Z,40.09
2024-04-18T13:27:31.635Z,38.75
2024-04-18T13:30:16.907Z,37.58
2024-04-18T13:33:02.047Z,38.97
2024-04-18T13:35:46.866Z,36.79
2024-04-18T13:38:31.974Z,35.44
2024-04-18T13:41:17.013Z,38.30
2024-04-18T13:44:02.194Z,39.55
2024-04-18T13:46:47.277Z,38.09
2024-04-18T13:49:32.186Z,38.19
2024-04-18T13:52:17.181Z,36.20
2024-04-18T13:55:02.219Z,36.23
2024-04-18T13:57:47.315Z,36.20
2024-04-18T14:00:32.424Z,37.05
2024-04-18T14:03:19.308Z,35.41
2024-04-18T14:06:04.656Z,34.34
2024-04-18T14:08:49.683Z,35.32
2024-04-18T14:11:34.860Z,31.44
2024-04-18T14:14:19.950Z,31.50
2024-04-18T14:17:05.163Z,32.03
2024-04-18T14:19:49.961Z,32.84
2024-04-18T14:22:34.954Z,35.01
2024-04-18T14:25:19.991Z,32.68
2024-04-18T14:28:09.681Z,33.16
2024-04-18T14:30:57.828Z,33.92
2024-04-18T14:33:43.057Z,35.74
2024-04-18T14:36:27.961Z,36.60
2024-04-18T14:39:13.046Z,36.16
2024-04-18T14:41:58.036Z,37.12
2024-04-18T14:44:43.249Z,38.04
2024-04-18T14:47:28.334Z,38.02
2024-04-18T14:50:13.523Z,37.80
2024-04-18T14:52:58.622Z,35.78
2024-04-18T14:55:43.737Z,34.99
2024-04-18T14:58:28.845Z,34.02
2024-04-18T15:01:13.875Z,32.89
2024-04-18T15:03:58.976Z,33.24
2024-04-18T15:06:43.775Z,33.76
2024-04-18T15:09:28.844Z,36.06
2024-04-18T15:12:13.876Z,35.46
2024-04-18T15:14:58.840Z,35.32
2024-04-18T15:17:44.044Z,34.15
2024-04-18T15:20:28.920Z,33.71
2024-04-18T15:23:14.061Z,33.15
2024-04-18T15:25:59.156Z,34.44
2024-04-18T15:28:44.429Z,34.58
2024-04-18T15:31:29.338Z,34.42
2024-04-18T15:34:14.543Z,34.41
2024-04-18T15:36:59.723Z,35.66
2024-04-18T15:39:44.593Z,34.68
2024-04-18T15:42:29.686Z,34.79
2024-04-18T15:45:14.781Z,35.49
2024-04-18T15:47:59.859Z,34.15
2024-04-18T15:50:44.814Z,32.58
2024-04-18T15:53:29.963Z,34.69
2024-04-18T15:56:16.571Z,33.82
2024-04-18T15:59:01.925Z,34.10
2024-04-18T16:01:47.038Z,34.77
2024-04-18T16:04:31.977Z,35.36
2024-04-18T16:07:17.034Z,33.14
2024-04-18T16:10:02.247Z,34.71
2024-04-18T16:12:47.396Z,33.06
2024-04-18T16:15:32.481Z,32.26
2024-04-18T16:18:17.589Z,33.22
2024-04-18T16:21:02.656Z,33.42
2024-04-18T16:23:47.731Z,33.09
2024-04-18T16:26:32.919Z,34.07
2024-04-18T16:29:17.978Z,33.07
2024-04-18T16:32:03.025Z,33.82
2024-04-18T16:34:48.115Z,33.85
2024-04-18T16:37:33.209Z,33.63
2024-04-18T16:40:18.520Z,34.31
2024-04-18T16:43:03.494Z,35.13
2024-04-18T16:45:48.847Z,34.91
2024-04-18T16:48:33.796Z,34.52
2024-04-18T16:51:19.017Z,35.38
2024-04-18T16:54:03.806Z,34.32
2024-04-18T16:56:48.932Z,34.83
2024-04-18T16:59:33.903Z,34.84
2024-04-18T17:02:18.848Z,34.57
2024-04-18T17:05:04.061Z,34.12
2024-04-18T17:07:48.966Z,33.39
2024-04-18T17:10:34.295Z,33.74
2024-04-18T17:13:19.122Z,34.38
2024-04-18T17:16:04.118Z,36.13
2024-04-18T17:18:49.311Z,34.74
2024-04-18T17:21:34.620Z,34.46
2024-04-18T17:24:19.762Z,33.86
2024-04-18T17:27:04.821Z,33.74
2024-04-18T17:29:49.945Z,34.86
2024-04-18T17:32:35.064Z,34.34
2024-04-18T17:35:20.109Z,33.88
2024-04-18T17:38:05.229Z,34.12
2024-04-18T17:40:50.444Z,34.46
2024-04-18T17:43:35.782Z,33.80
2024-04-18T17:46:20.767Z,34.50
2024-04-18T17:49:06.066Z,34.57
2024-04-18T17:51:51.036Z,34.26
2024-04-18T17:54:36.250Z,34.84
2024-04-18T17:57:21.275Z,34.65
2024-04-18T18:00:06.291Z,34.04
2024-04-18T18:02:51.533Z,34.15
2024-04-18T18:05:36.450Z,35.02
2024-04-18T18:08:21.587Z,35.38
2024-04-18T18:11:06.640Z,35.76
2024-04-18T18:13:53.795Z,35.93
2024-04-18T18:16:38.967Z,35.26
2024-04-18T18:19:23.993Z,36.12
2024-04-18T18:22:09.163Z,35.02
2024-04-18T18:24:54.290Z,36.17
2024-04-18T18:27:39.410Z,36.92
2024-04-18T18:30:24.271Z,36.75
2024-04-18T18:33:09.480Z,37.04
2024-04-18T18:35:54.640Z,36.54
2024-04-18T18:38:39.716Z,36.96
2024-04-18T18:41:24.719Z,37.86
2024-04-18T18:44:09.608Z,38.46
2024-04-18T18:46:54.705Z,39.68
2024-04-18T18:49:39.683Z,40.17
2024-04-18T18:52:24.937Z,39.53
2024-04-18T18:55:09.994Z,39.45
2024-04-18T18:57:55.035Z,40.29
2024-04-18T19:00:40.152Z,40.53
2024-04-18T19:03:25.285Z,40.11
2024-04-18T19:06:10.300Z,39.13
2024-04-18T19:08:55.407Z,38.74
2024-04-18T19:11:40.505Z,38.93
2024-04-18T19:14:25.442Z,38.81
2024-04-18T19:17:11.153Z,38.76
2024-04-18T19:19:57.087Z,38.20
2024-04-18T19:22:42.106Z,38.71
2024-04-18T19:25:27.166Z,39.15
2024-04-18T19:28:12.116Z,39.45
2024-04-18T19:30:57.196Z,40.36
2024-04-18T19:33:42.349Z,40.08
2024-04-18T19:36:27.913Z,40.64
2024-04-18T19:39:13.061Z,39.85
2024-04-18T19:41:58.202Z,38.95
2024-04-18T19:44:43.353Z,40.17
2024-04-18T19:47:28.272Z,39.91
2024-04-18T19:50:13.273Z,40.30
2024-04-18T19:52:58.381Z,39.66
2024-04-18T19:55:43.490Z,39.69
2024-04-18T19:58:28.492Z,39.64
2024-04-18T20:01:13.612Z,40.47
2024-04-18T20:03:58.841Z,41.75
2024-04-18T20:06:43.707Z,41.67
2024-04-18T20:09:28.916Z,41.33
2024-04-18T20:12:13.902Z,40.35
2024-04-18T20:14:59.056Z,40.22
2024-04-18T20:17:46.246Z,40.00
2024-04-18T20:20:32.172Z,39.45
2024-04-18T20:23:17.313Z,39.42
2024-04-18T20:26:02.415Z,38.89
2024-04-18T20:28:47.539Z,38.77
2024-04-18T20:31:32.607Z,38.84
2024-04-18T20:34:17.629Z,38.13
2024-04-18T20:37:02.776Z,38.09
2024-04-18T20:39:47.864Z,37.77
2024-04-18T20:42:33.005Z,37.58
2024-04-18T20:45:18.041Z,38.44
2024-04-18T20:48:03.337Z,37.68
2024-04-18T20:50:48.468Z,38.24
2024-04-18T20:53:33.538Z,37.95
2024-04-18T20:56:18.641Z,38.27
2024-04-18T20:59:03.740Z,37.76
2024-04-18T21:01:48.820Z,37.66
2024-04-18T21:04:33.817Z,37.99
2024-04-18T21:07:19.010Z,37.88
2024-04-18T21:10:03.946Z,38.50
2024-04-18T21:12:49.026Z,38.91
2024-04-18T21:15:34.111Z,39.92
2024-04-18T21:18:19.187Z,39.58
2024-04-18T21:21:04.243Z,39.29
2024-04-18T21:23:49.246Z,40.31
2024-04-18T21:26:34.397Z,40.29
2024-04-18T21:29:19.522Z,40.02
2024-04-18T21:32:04.762Z,40.67
2024-04-18T21:34:49.882Z,41.41
2024-04-18T21:37:34.851Z,41.06
2024-04-18T21:40:20.057Z,41.47
2024-04-18T21:43:04.931Z,39.99
2024-04-18T21:45:50.204Z,39.31
2024-04-18T21:48:35.352Z,39.23
2024-04-18T21:51:20.249Z,39.34
2024-04-18T21:54:05.173Z,39.54
2024-04-18T21:56:50.239Z,38.80
2024-04-18T21:59:35.257Z,38.44
2024-04-18T22:02:20.314Z,38.86
2024-04-18T22:05:05.341Z,38.84
2024-04-18T22:07:50.379Z,38.94
2024-04-18T22:10:35.528Z,38.30
2024-04-18T22:13:20.454Z,38.42
2024-04-18T22:16:05.498Z,39.42
2024-04-18T22:18:50.677Z,38.44
2024-04-18T22:21:35.616Z,38.62
2024-04-18T22:24:20.777Z,38.58
2024-04-18T22:27:05.667Z,39.62
2024-04-18T22:29:50.856Z,38.89
2024-04-18T22:32:35.978Z,39.12
2024-04-18T22:35:21.194Z,40.03
2024-04-18T22:38:06.464Z,40.37
2024-04-18T22:40:51.506Z,40.77
2024-04-18T22:43:36.681Z,41.64
2024-04-18T22:46:21.591Z,41.81
2024-04-18T22:49:06.893Z,42.11
2024-04-18T22:51:51.933Z,41.46
2024-04-18T22:54:37.100Z,41.67
2024-04-18T22:57:22.003Z,41.86
2024-04-18T23:00:07.069Z,41.96
2024-04-18T23:02:52.237Z,41.84
2024-04-18T23:05:37.206Z,41.45
2024-04-18T23:08:22.215Z,41.88
2024-04-18T23:11:07.174Z,41.29
2024-04-18T23:13:52.294Z,41.79
2024-04-18T23:16:37.347Z,41.74
2024-04-18T23:19:22.484Z,42.21
2024-04-18T23:22:07.505Z,41.20
2024-04-18T23:24:52.430Z,41.64
2024-04-18T23:27:37.738Z,42.69
2024-04-18T23:30:22.865Z,42.57
2024-04-18T23:33:07.970Z,42.50
2024-04-18T23:35:52.848Z,42.69
2024-04-18T23:38:37.949Z,42.72
2024-04-18T23:41:23.175Z,42.83
2024-04-18T23:44:08.288Z,43.00
2024-04-18T23:46:53.374Z,43.68
2024-04-18T23:49:38.358Z,44.47
2024-04-18T23:52:23.486Z,44.92
2024-04-18T23:55:08.424Z,44.89
2024-04-18T23:57:53.742Z,44.31
